Time;durP1;ratioP1;P1;durP2;ratioP2;P2;SDS_P1;SDS_P2;PMS_P1;PMS_P2;Temp;Humidity;BMP_temperature;BMP_pressure;BME280_temperature;BME280_humidity;BME280_pressure;Samples;Min_cycle;Max_cycle;Signal;HPM_P1;HPM_P2
2022/07/15 00:01:06;;;;;;;5.68;1.40;;;15.70;99.90;;;;;;5047691;28;20075;-59
2022/07/15 00:03:31;;;;;;;5.38;1.55;;;15.60;99.90;;;;;;5030672;28;20072;-59
2022/07/15 00:05:57;;;;;;;2.20;1.35;;;15.50;99.90;;;;;;5043133;28;20110;-59
2022/07/15 00:08:23;;;;;;;5.50;1.63;;;15.50;99.90;;;;;;5036829;28;20429;-59
2022/07/15 00:10:49;;;;;;;4.88;1.60;;;15.40;99.90;;;;;;5030252;28;20028;-60
2022/07/15 00:13:15;;;;;;;3.10;1.20;;;15.40;99.90;;;;;;5035129;28;20502;-59
2022/07/15 00:15:40;;;;;;;2.90;1.40;;;15.40;99.90;;;;;;5037136;28;20538;-59
2022/07/15 00:18:06;;;;;;;4.82;1.50;;;15.30;99.90;;;;;;5049887;28;20056;-60
2022/07/15 00:20:35;;;;;;;2.80;1.40;;;15.30;99.90;;;;;;5041484;28;20376;-59
2022/07/15 00:23:06;;;;;;;5.18;1.67;;;15.30;99.90;;;;;;5046579;28;20137;-60
2022/07/15 00:25:32;;;;;;;4.60;1.90;;;15.40;99.90;;;;;;5032310;28;20049;-59
2022/07/15 00:28:00;;;;;;;6.13;1.70;;;15.30;99.90;;;;;;5038596;28;20112;-59
2022/07/15 00:30:31;;;;;;;4.95;1.50;;;15.20;99.90;;;;;;5034760;28;20037;-59
2022/07/15 00:32:57;;;;;;;5.60;2.00;;;15.20;99.90;;;;;;5035161;28;20108;-60
2022/07/15 00:35:23;;;;;;;2.85;1.50;;;15.20;99.90;;;;;;5040368;28;20021;-59
2022/07/15 00:37:49;;;;;;;4.85;1.92;;;15.20;99.90;;;;;;5037157;28;20037;-58
2022/07/15 00:40:14;;;;;;;4.93;1.95;;;15.20;99.90;;;;;;5044961;28;20033;-58
2022/07/15 00:42:46;;;;;;;6.18;1.83;;;15.10;99.90;;;;;;5032933;28;20033;-59
2022/07/15 00:45:23;;;;;;;5.65;2.08;;;15.10;99.90;;;;;;5044464;28;20032;-58
2022/07/15 00:47:54;;;;;;;6.00;1.65;;;15.10;99.90;;;;;;5028671;28;20029;-59
2022/07/15 00:50:21;;;;;;;4.72;1.30;;;15.10;99.90;;;;;;5035718;28;20025;-58
2022/07/15 00:53:07;;;;;;;6.93;1.50;;;15.10;99.90;;;;;;5044925;28;20037;-58
2022/07/15 00:55:39;;;;;;;2.72;1.60;;;15.10;99.90;;;;;;5035847;28;20029;-57
2022/07/15 00:58:06;;;;;;;4.35;1.88;;;15.00;99.90;;;;;;5031702;28;20025;-59
2022/07/15 01:00:32;;;;;;;4.32;1.80;;;15.00;99.90;;;;;;5036236;28;20033;-58
2022/07/15 01:03:00;;;;;;;6.85;2.20;;;14.80;99.90;;;;;;5034892;28;20034;-58
2022/07/15 01:05:26;;;;;;;8.07;2.65;;;14.80;99.90;;;;;;5042993;28;20028;-58
2022/07/15 01:07:52;;;;;;;8.38;2.50;;;14.70;99.90;;;;;;5032105;28;20545;-58
2022/07/15 01:10:20;;;;;;;9.32;2.40;;;14.80;99.90;;;;;;5040076;28;20029;-58
2022/07/15 01:12:47;;;;;;;7.85;2.60;;;14.90;99.90;;;;;;5037205;28;20385;-58
2022/07/15 01:15:13;;;;;;;8.88;2.67;;;14.90;99.90;;;;;;5035247;28;20017;-57
2022/07/15 01:17:39;;;;;;;6.53;2.10;;;14.90;99.90;;;;;;5030225;28;20430;-58
2022/07/15 01:20:05;;;;;;;8.57;2.30;;;14.80;99.90;;;;;;5042157;28;20115;-58
2022/07/15 01:22:31;;;;;;;6.95;2.83;;;14.80;99.90;;;;;;5037561;28;20046;-58
2022/07/15 01:24:58;;;;;;;4.70;2.80;;;14.80;99.90;;;;;;5024043;28;20115;-57
2022/07/15 01:27:25;;;;;;;11.27;2.92;;;14.80;99.90;;;;;;5041611;28;20445;-57
2022/07/15 01:29:51;;;;;;;5.65;2.50;;;14.70;99.90;;;;;;5031390;28;20017;-58
2022/07/15 01:32:17;;;;;;;5.10;3.08;;;14.60;99.90;;;;;;5038034;28;20033;-58
2022/07/15 01:34:42;;;;;;;6.45;2.92;;;14.50;99.90;;;;;;5037073;28;20100;-58
2022/07/15 01:37:08;;;;;;;4.82;2.90;;;14.40;99.90;;;;;;5039561;28;20025;-58
2022/07/15 01:39:34;;;;;;;6.60;3.03;;;14.40;99.90;;;;;;5036680;28;20079;-58
2022/07/15 01:42:00;;;;;;;6.68;3.50;;;14.40;99.90;;;;;;5021085;28;20030;-57
2022/07/15 01:44:25;;;;;;;7.15;2.58;;;14.50;99.90;;;;;;5039033;28;20083;-58
2022/07/15 01:46:51;;;;;;;12.10;3.40;;;14.50;99.90;;;;;;5036794;28;20021;-57
2022/07/15 01:49:24;;;;;;;9.93;2.90;;;14.60;99.90;;;;;;5038978;28;20044;-58
2022/07/15 01:51:50;;;;;;;6.57;2.80;;;14.60;99.90;;;;;;5035722;28;20433;-57
2022/07/15 01:54:17;;;;;;;5.97;2.70;;;14.60;99.90;;;;;;5034261;28;20063;-58
2022/07/15 01:56:43;;;;;;;6.20;2.55;;;14.60;99.90;;;;;;5031577;28;20025;-57
2022/07/15 01:59:08;;;;;;;8.40;2.75;;;14.70;99.90;;;;;;5024912;28;20022;-60
2022/07/15 02:01:35;;;;;;;6.30;3.17;;;14.70;99.90;;;;;;5036522;28;20056;-58
2022/07/15 02:04:01;;;;;;;5.30;2.72;;;14.70;99.90;;;;;;5040229;28;20520;-58
2022/07/15 02:06:27;;;;;;;4.28;2.70;;;14.80;99.90;;;;;;5042767;28;20029;-58
2022/07/15 02:08:52;;;;;;;6.40;2.92;;;14.80;99.90;;;;;;5035410;28;20030;-58
2022/07/15 02:11:18;;;;;;;7.28;2.47;;;14.80;99.90;;;;;;5039177;28;20052;-56
2022/07/15 02:13:44;;;;;;;8.23;2.40;;;14.80;99.90;;;;;;5031659;28;20034;-58
2022/07/15 02:16:09;;;;;;;9.40;2.55;;;14.80;99.90;;;;;;5034366;28;20047;-58
2022/07/15 02:18:35;;;;;;;5.03;2.33;;;14.90;99.90;;;;;;5038120;28;20028;-58
2022/07/15 02:21:02;;;;;;;7.25;2.50;;;15.00;99.90;;;;;;5030697;28;20037;-61
2022/07/15 02:23:28;;;;;;;4.20;2.20;;;15.00;99.90;;;;;;5038140;28;20124;-58
2022/07/15 02:25:54;;;;;;;6.93;2.78;;;15.10;99.90;;;;;;5026392;28;20017;-58
2022/07/15 02:28:20;;;;;;;3.88;1.98;;;15.00;99.90;;;;;;5039573;28;20115;-58
2022/07/15 02:30:45;;;;;;;5.40;1.58;;;15.00;99.90;;;;;;5034252;28;20052;-58
2022/07/15 02:33:13;;;;;;;7.43;2.28;;;14.90;99.90;;;;;;5038566;28;20047;-58
2022/07/15 02:35:40;;;;;;;5.15;1.67;;;14.90;99.90;;;;;;5027360;28;20040;-58
2022/07/15 02:38:06;;;;;;;4.97;2.17;;;14.80;99.90;;;;;;5031341;28;20453;-59
2022/07/15 02:40:32;;;;;;;3.60;1.90;;;14.60;99.90;;;;;;5034189;28;20499;-60
2022/07/15 02:43:01;;;;;;;2.72;2.05;;;14.60;99.90;;;;;;5040084;28;20037;-59
2022/07/15 02:45:30;;;;;;;9.50;3.03;;;14.50;99.90;;;;;;5036348;28;20060;-59
2022/07/15 02:47:56;;;;;;;3.97;2.08;;;14.40;99.90;;;;;;5034237;28;20121;-58
2022/07/15 02:50:22;;;;;;;4.57;1.92;;;14.30;99.90;;;;;;5030995;28;20112;-59
2022/07/15 02:52:48;;;;;;;6.03;2.13;;;14.20;99.90;;;;;;5034782;28;20021;-59
2022/07/15 02:55:14;;;;;;;5.78;2.72;;;14.20;99.90;;;;;;5039219;28;20028;-58
2022/07/15 02:57:40;;;;;;;4.25;2.10;;;14.20;99.90;;;;;;5032122;28;20037;-59
2022/07/15 03:00:11;;;;;;;8.20;2.30;;;14.30;99.90;;;;;;5037753;28;20029;-58
2022/07/15 03:02:37;;;;;;;6.28;2.30;;;14.20;99.90;;;;;;5041334;28;20061;-59
2022/07/15 03:05:04;;;;;;;7.38;2.25;;;14.20;99.90;;;;;;5033945;28;20029;-59
2022/07/15 03:07:29;;;;;;;5.68;1.88;;;14.20;99.90;;;;;;5037087;28;20055;-59
2022/07/15 03:09:55;;;;;;;4.65;2.10;;;14.20;99.90;;;;;;5034617;28;20067;-59
2022/07/15 03:12:21;;;;;;;6.30;1.73;;;14.20;99.90;;;;;;5032998;28;20053;-59
2022/07/15 03:14:47;;;;;;;7.68;2.10;;;14.20;99.90;;;;;;5037127;28;20036;-58
2022/07/15 03:17:13;;;;;;;2.97;2.03;;;14.10;99.90;;;;;;5030854;28;20038;-59
2022/07/15 03:19:39;;;;;;;6.10;2.33;;;14.20;99.90;;;;;;5032258;28;20365;-60
2022/07/15 03:22:05;;;;;;;7.10;3.03;;;14.10;99.90;;;;;;5040481;28;20088;-58
2022/07/15 03:24:31;;;;;;;7.57;2.22;;;14.00;99.90;;;;;;5041132;28;20071;-57
2022/07/15 03:26:58;;;;;;;4.43;1.75;;;14.10;99.90;;;;;;5028744;28;20025;-58
2022/07/15 03:29:24;;;;;;;3.92;2.50;;;14.00;99.90;;;;;;5041717;28;20443;-58
2022/07/15 03:31:50;;;;;;;6.53;1.83;;;14.00;99.90;;;;;;5027230;28;20120;-58
2022/07/15 03:34:16;;;;;;;4.53;2.10;;;13.90;99.90;;;;;;5015137;28;20029;-58
2022/07/15 03:36:42;;;;;;;5.07;2.30;;;13.90;99.90;;;;;;5030748;28;20472;-58
2022/07/15 03:39:08;;;;;;;3.17;2.60;;;13.80;99.90;;;;;;5036403;28;20520;-58
2022/07/15 03:41:34;;;;;;;4.28;2.50;;;13.80;99.90;;;;;;5033187;28;20436;-58
2022/07/15 03:44:02;;;;;;;4.13;1.65;;;13.70;99.90;;;;;;5036338;28;20041;-58
2022/07/15 03:46:29;;;;;;;4.65;1.95;;;13.70;99.90;;;;;;5038350;28;20031;-58
2022/07/15 03:48:56;;;;;;;2.70;1.52;;;13.70;99.90;;;;;;5042116;28;20029;-58
2022/07/15 03:51:24;;;;;;;4.35;1.90;;;13.60;99.90;;;;;;5036772;28;20029;-58
2022/07/15 03:53:50;;;;;;;6.13;2.13;;;13.60;99.90;;;;;;5035739;28;20029;-59
2022/07/15 03:56:16;;;;;;;5.40;3.08;;;13.60;99.90;;;;;;5032592;28;20052;-58
2022/07/15 03:58:44;;;;;;;7.45;2.17;;;13.50;99.90;;;;;;5040501;28;20060;-58
2022/07/15 04:01:10;;;;;;;6.32;2.50;;;13.40;99.90;;;;;;5044286;28;20108;-57
2022/07/15 04:03:35;;;;;;;5.47;2.17;;;13.40;99.90;;;;;;5040919;28;20488;-58
2022/07/15 04:06:01;;;;;;;8.10;2.50;;;13.40;99.90;;;;;;5040040;28;20113;-58
2022/07/15 04:08:27;;;;;;;4.57;2.50;;;13.40;99.90;;;;;;5043698;28;20503;-58
2022/07/15 04:10:53;;;;;;;6.97;2.20;;;13.40;99.90;;;;;;5033760;28;20035;-59
2022/07/15 04:13:19;;;;;;;7.32;2.80;;;13.30;99.90;;;;;;5036330;28;20396;-59
2022/07/15 04:15:46;;;;;;;5.55;2.55;;;13.30;99.90;;;;;;5036973;28;20501;-59
2022/07/15 04:18:12;;;;;;;8.85;2.42;;;13.40;99.90;;;;;;5040819;28;20072;-59
2022/07/15 04:20:37;;;;;;;6.68;2.10;;;13.50;99.90;;;;;;5037331;28;20389;-59
2022/07/15 04:23:03;;;;;;;5.78;2.30;;;13.50;99.90;;;;;;5036511;28;20044;-59
2022/07/15 04:25:29;;;;;;;8.43;3.38;;;13.60;99.90;;;;;;5033142;28;20029;-59
2022/07/15 04:27:55;;;;;;;4.57;1.42;;;13.60;99.90;;;;;;5033767;28;20040;-59
2022/07/15 04:30:20;;;;;;;2.97;1.25;;;13.70;99.90;;;;;;5033801;28;20112;-59
2022/07/15 04:32:46;;;;;;;4.40;1.70;;;13.80;99.90;;;;;;5029785;28;20055;-59
2022/07/15 04:35:12;;;;;;;6.13;2.83;;;13.90;99.90;;;;;;5033113;28;20029;-59
2022/07/15 04:37:37;;;;;;;4.65;1.58;;;13.90;99.90;;;;;;5033791;28;20026;-58
2022/07/15 04:40:06;;;;;;;6.10;2.00;;;13.90;99.90;;;;;;5041113;28;20470;-59
2022/07/15 04:42:32;;;;;;;2.90;1.50;;;13.90;99.90;;;;;;5033388;28;20079;-59
2022/07/15 04:44:58;;;;;;;3.58;1.42;;;14.00;99.90;;;;;;5033981;28;20374;-59
2022/07/15 04:47:24;;;;;;;4.35;1.70;;;14.10;99.90;;;;;;5035057;28;20028;-59
2022/07/15 04:52:34;;;;;;;5.35;1.30;;;14.30;99.90;;;;;;5029829;28;20060;-59
2022/07/15 04:54:59;;;;;;;4.22;1.15;;;14.50;99.90;;;;;;5039952;28;20384;-59
2022/07/15 04:57:25;;;;;;;1.80;1.20;;;14.50;99.90;;;;;;5037076;28;20103;-59
2022/07/15 04:59:51;;;;;;;6.43;1.30;;;14.60;99.90;;;;;;5032653;28;20029;-59
2022/07/15 05:02:16;;;;;;;4.10;1.30;;;14.70;99.90;;;;;;5032906;28;20040;-58
2022/07/15 05:04:42;;;;;;;5.03;1.40;;;14.60;99.90;;;;;;5033288;28;20081;-59
2022/07/15 05:07:08;;;;;;;3.05;1.10;;;14.60;99.90;;;;;;5034915;28;20037;-59
2022/07/15 05:09:34;;;;;;;2.22;1.42;;;14.60;99.90;;;;;;5037245;28;20112;-59
2022/07/15 05:12:00;;;;;;;6.47;2.00;;;14.60;99.90;;;;;;5035657;28;20032;-60
2022/07/15 05:14:25;;;;;;;3.22;1.40;;;14.60;99.90;;;;;;5040750;28;20035;-58
2022/07/15 05:16:51;;;;;;;5.57;1.50;;;14.60;99.90;;;;;;5039198;28;20396;-58
2022/07/15 05:19:17;;;;;;;3.83;1.60;;;14.60;99.90;;;;;;5039813;28;20536;-59
2022/07/15 05:21:43;;;;;;;3.90;1.38;;;14.70;99.90;;;;;;5035146;28;20045;-59
2022/07/15 05:24:09;;;;;;;3.97;1.35;;;14.70;99.90;;;;;;5033375;28;20038;-59
2022/07/15 05:26:35;;;;;;;2.35;1.02;;;14.70;99.90;;;;;;5031913;28;20428;-59
2022/07/15 05:29:01;;;;;;;6.88;1.90;;;14.80;99.90;;;;;;5033959;28;20025;-58
2022/07/15 05:31:27;;;;;;;4.93;1.52;;;14.80;99.90;;;;;;5042040;28;20035;-59
2022/07/15 05:33:53;;;;;;;3.05;1.27;;;14.80;99.90;;;;;;5024001;28;20385;-58
2022/07/15 05:36:19;;;;;;;2.60;1.27;;;14.90;99.90;;;;;;5037780;28;20036;-58
2022/07/15 05:38:45;;;;;;;2.65;1.45;;;14.90;99.90;;;;;;5041554;28;20032;-59
2022/07/15 05:41:11;;;;;;;3.70;1.33;;;15.00;99.90;;;;;;5035611;28;20029;-60
2022/07/15 05:43:37;;;;;;;3.22;1.00;;;15.00;99.90;;;;;;5035965;28;20044;-59
2022/07/15 05:46:04;;;;;;;6.38;1.40;;;15.00;99.90;;;;;;5030168;28;20024;-59
2022/07/15 05:48:30;;;;;;;1.92;1.17;;;15.10;99.90;;;;;;5042924;28;20459;-59
2022/07/15 05:50:56;;;;;;;4.45;2.08;;;15.20;99.90;;;;;;5035709;28;20381;-61
2022/07/15 05:53:22;;;;;;;3.85;1.35;;;15.20;99.90;;;;;;5036261;28;20173;-59
2022/07/15 05:55:48;;;;;;;4.22;1.55;;;15.30;99.90;;;;;;5035302;28;20217;-58
2022/07/15 05:58:13;;;;;;;4.80;1.42;;;15.30;99.90;;;;;;5032311;28;20120;-58
2022/07/15 06:00:39;;;;;;;4.25;1.70;;;15.40;99.90;;;;;;5025046;28;20032;-59
2022/07/15 06:03:05;;;;;;;6.47;1.80;;;15.50;99.90;;;;;;5035985;28;20029;-59
2022/07/15 06:05:32;;;;;;;2.97;1.50;;;15.50;99.90;;;;;;5041909;28;20017;-59
2022/07/15 06:07:58;;;;;;;4.43;1.80;;;15.60;99.90;;;;;;5031381;28;20095;-59
2022/07/15 06:10:24;;;;;;;4.50;1.92;;;15.70;99.90;;;;;;5030095;28;20091;-59
2022/07/15 06:12:52;;;;;;;4.07;1.60;;;15.70;99.90;;;;;;5039810;28;20033;-58
2022/07/15 06:15:19;;;;;;;5.82;1.40;;;15.80;99.90;;;;;;5034425;28;20444;-59
2022/07/15 06:17:44;;;;;;;9.57;1.67;;;15.80;99.90;;;;;;5031901;28;20029;-58
2022/07/15 06:20:11;;;;;;;2.75;1.20;;;15.90;99.90;;;;;;5029203;28;20116;-58
2022/07/15 06:22:37;;;;;;;5.78;1.80;;;16.00;99.90;;;;;;5029633;28;20053;-58
2022/07/15 06:25:03;;;;;;;6.30;2.08;;;16.10;99.90;;;;;;5029684;28;20102;-58
2022/07/15 06:27:30;;;;;;;3.28;1.13;;;16.20;99.90;;;;;;5028647;28;20026;-58
2022/07/15 06:29:57;;;;;;;3.15;1.73;;;16.30;99.90;;;;;;5029315;28;20441;-57
2022/07/15 06:32:23;;;;;;;3.35;1.38;;;16.40;99.90;;;;;;5026004;28;20033;-59
2022/07/15 06:34:49;;;;;;;3.28;1.52;;;16.40;99.90;;;;;;5029150;28;20030;-59
2022/07/15 06:37:15;;;;;;;5.25;1.52;;;16.50;99.90;;;;;;5034954;28;20388;-58
2022/07/15 06:39:40;;;;;;;9.73;1.70;;;16.60;99.90;;;;;;5034746;28;20033;-59
2022/07/15 06:42:06;;;;;;;6.03;1.65;;;16.60;99.90;;;;;;5027586;28;20584;-58
2022/07/15 06:44:32;;;;;;;4.25;1.50;;;16.70;99.90;;;;;;5028193;28;20653;-58
2022/07/15 06:46:58;;;;;;;6.93;2.58;;;16.70;99.90;;;;;;5029227;28;20145;-59
2022/07/15 06:49:24;;;;;;;3.92;1.60;;;16.90;99.90;;;;;;5033532;28;20111;-59
2022/07/15 06:51:51;;;;;;;6.78;1.63;;;17.00;99.90;;;;;;5028962;28;20099;-57
2022/07/15 06:54:18;;;;;;;2.72;1.10;;;17.10;99.90;;;;;;5029688;28;20036;-58
2022/07/15 06:56:44;;;;;;;6.45;1.60;;;17.10;99.90;;;;;;5034036;28;20032;-58
2022/07/15 06:59:10;;;;;;;4.63;1.90;;;17.20;99.90;;;;;;5030787;28;20026;-59
2022/07/15 07:01:36;;;;;;;3.50;1.30;;;17.20;99.90;;;;;;5028381;28;20033;-58
2022/07/15 07:04:03;;;;;;;1.58;1.15;;;17.20;99.90;;;;;;5029150;28;20040;-58
2022/07/15 07:06:29;;;;;;;4.18;1.27;;;17.30;99.90;;;;;;5036741;28;20091;-58
2022/07/15 07:08:55;;;;;;;8.65;2.35;;;17.30;99.90;;;;;;5032601;28;20033;-58
2022/07/15 07:11:20;;;;;;;5.45;1.48;;;17.50;99.90;;;;;;5033569;28;20131;-58
2022/07/15 07:13:47;;;;;;;6.72;1.35;;;17.70;99.90;;;;;;5029302;28;20389;-58
2022/07/15 07:16:13;;;;;;;5.50;1.42;;;17.70;99.90;;;;;;5027510;28;20045;-58
2022/07/15 07:18:39;;;;;;;3.13;1.08;;;17.70;99.90;;;;;;5035015;28;20025;-58
2022/07/15 07:21:05;;;;;;;4.22;1.40;;;17.80;99.90;;;;;;5029949;28;20029;-59
2022/07/15 07:23:31;;;;;;;2.65;1.33;;;17.80;99.90;;;;;;5036748;28;20041;-57
2022/07/15 07:25:58;;;;;;;3.80;1.38;;;17.90;99.90;;;;;;5030815;28;20032;-58
2022/07/15 07:28:24;;;;;;;5.68;1.50;;;18.00;99.90;;;;;;5032466;28;20029;-58
2022/07/15 07:30:52;;;;;;;3.13;1.45;;;18.20;99.90;;;;;;5031837;28;20032;-59
2022/07/15 07:33:18;;;;;;;8.77;1.35;;;18.20;99.90;;;;;;5019743;28;20029;-58
2022/07/15 07:35:44;;;;;;;3.40;0.90;;;18.30;99.90;;;;;;5025989;28;20029;-58
2022/07/15 07:38:11;;;;;;;7.80;1.48;;;18.30;99.90;;;;;;5032652;28;20061;-59
2022/07/15 07:40:36;;;;;;;6.90;1.45;;;18.30;99.90;;;;;;5032352;28;20110;-59
2022/07/15 07:43:02;;;;;;;5.20;1.33;;;18.40;99.90;;;;;;5036114;28;20077;-59
2022/07/15 07:45:28;;;;;;;5.80;2.10;;;18.40;99.90;;;;;;5035570;28;20033;-58
2022/07/15 07:47:55;;;;;;;5.20;1.20;;;18.40;99.90;;;;;;5032174;28;20032;-58
2022/07/15 07:50:20;;;;;;;5.75;1.55;;;18.40;99.90;;;;;;5033767;28;20053;-58
2022/07/15 07:52:47;;;;;;;4.70;1.70;;;18.30;99.90;;;;;;5030492;28;20106;-60
2022/07/15 07:55:12;;;;;;;7.85;1.20;;;18.40;99.90;;;;;;5032338;28;20502;-59
2022/07/15 07:57:53;;;;;;;6.13;2.10;;;18.50;99.90;;;;;;5033480;28;20032;-58
2022/07/15 08:00:20;;;;;;;7.22;2.38;;;18.50;99.90;;;;;;5026865;28;20041;-58
2022/07/15 08:02:47;;;;;;;7.38;1.27;;;18.50;99.90;;;;;;5026923;28;20036;-58
2022/07/15 08:05:13;;;;;;;3.78;1.42;;;18.60;99.90;;;;;;5033126;28;20306;-58
2022/07/15 08:07:41;;;;;;;4.60;1.00;;;18.60;99.90;;;;;;5029749;28;20441;-59
2022/07/15 08:10:09;;;;;;;5.90;1.65;;;18.60;99.90;;;;;;5036111;28;20035;-59
2022/07/15 08:12:37;;;;;;;1.70;1.17;;;18.80;99.90;;;;;;5034169;28;20026;-60
2022/07/15 08:15:06;;;;;;;4.15;1.23;;;18.80;99.90;;;;;;5040214;28;20028;-59
2022/07/15 08:17:31;;;;;;;4.65;1.00;;;18.80;99.90;;;;;;5037214;28;20029;-58
2022/07/15 08:19:57;;;;;;;5.38;1.73;;;18.80;99.90;;;;;;5033580;28;20084;-59
2022/07/15 08:22:23;;;;;;;9.25;1.30;;;18.80;99.90;;;;;;5035420;28;20037;-58
2022/07/15 08:24:49;;;;;;;6.32;0.98;;;18.90;99.90;;;;;;5032947;28;20033;-59
2022/07/15 08:27:16;;;;;;;3.92;1.00;;;18.90;99.90;;;;;;5031792;28;20488;-59
2022/07/15 08:29:42;;;;;;;9.65;1.10;;;19.00;99.90;;;;;;5031899;28;20040;-59
2022/07/15 08:32:08;;;;;;;3.85;1.50;;;18.90;99.90;;;;;;5031683;28;20034;-60
2022/07/15 08:34:33;;;;;;;12.48;3.13;;;18.90;99.90;;;;;;5027919;28;20033;-58
2022/07/15 08:36:59;;;;;;;7.25;1.20;;;19.00;99.90;;;;;;5041945;28;20018;-59
2022/07/15 08:39:25;;;;;;;6.38;1.40;;;19.10;99.90;;;;;;5026028;28;20026;-60
2022/07/15 08:41:52;;;;;;;5.80;1.67;;;19.10;99.90;;;;;;5028413;28;20026;-59
2022/07/15 08:44:18;;;;;;;6.38;2.15;;;19.20;99.90;;;;;;5031233;28;20037;-60
2022/07/15 08:46:48;;;;;;;7.40;1.55;;;19.30;99.90;;;;;;5029442;28;20017;-60
2022/07/15 08:49:16;;;;;;;4.63;1.10;;;19.50;99.90;;;;;;5028813;28;20033;-59
2022/07/15 08:51:44;;;;;;;7.97;1.38;;;19.60;99.90;;;;;;5030536;28;20029;-60
2022/07/15 08:54:12;;;;;;;3.88;1.35;;;19.60;99.90;;;;;;5029141;28;20068;-60
2022/07/15 08:56:37;;;;;;;9.77;1.65;;;19.60;99.90;;;;;;5025702;28;20033;-60
2022/07/15 08:59:05;;;;;;;5.75;1.52;;;19.60;99.90;;;;;;5027054;28;20022;-60
2022/07/15 09:01:33;;;;;;;3.90;0.82;;;19.70;99.90;;;;;;5031431;28;20124;-59
2022/07/15 09:03:58;;;;;;;2.03;1.00;;;19.70;99.90;;;;;;5027620;28;20052;-60
2022/07/15 09:06:36;;;;;;;4.78;1.40;;;19.80;99.90;;;;;;5028413;28;20377;-60
2022/07/15 09:09:28;;;;;;;6.10;1.50;;;19.90;99.90;;;;;;5026932;28;20048;-61
2022/07/15 09:12:00;;;;;;;3.50;1.67;;;20.00;99.90;;;;;;5031007;28;20044;-58
2022/07/15 09:14:30;;;;;;;5.05;0.88;;;20.10;99.90;;;;;;5023990;28;20064;-59
2022/07/15 09:17:11;;;;;;;1.13;0.77;;;20.20;99.90;;;;;;5029124;28;20576;-59
2022/07/15 09:19:56;;;;;;;5.05;1.30;;;20.20;99.90;;;;;;5032163;28;20053;-61
2022/07/15 09:22:23;;;;;;;1.77;0.70;;;20.10;99.90;;;;;;5031267;28;20057;-60
2022/07/15 09:25:09;;;;;;;2.53;1.00;;;20.10;99.90;;;;;;5025491;28;20523;-59
2022/07/15 09:27:38;;;;;;;0.90;0.50;;;20.20;99.60;;;;;;5024675;28;20434;-57
2022/07/15 09:36:15;;;;;;;1.45;0.60;;;20.60;96.00;;;;;;5025584;28;20048;-60
2022/07/15 09:38:43;;;;;;;5.38;0.88;;;20.60;95.20;;;;;;5026477;28;20026;-59
2022/07/15 09:41:31;;;;;;;4.20;0.90;;;20.60;95.40;;;;;;5027337;28;20045;-59
2022/07/15 09:44:06;;;;;;;3.22;0.40;;;20.80;94.20;;;;;;5025416;28;20041;-59
2022/07/15 09:46:49;;;;;;;2.95;0.40;;;20.80;94.20;;;;;;5027939;28;20034;-59
2022/07/15 09:49:15;;;;;;;2.50;0.60;;;20.80;93.60;;;;;;5028368;28;20120;-60
2022/07/15 09:51:54;;;;;;;2.80;0.55;;;20.80;94.00;;;;;;5022533;28;20758;-60
2022/07/15 09:54:30;;;;;;;4.90;1.38;;;20.90;94.30;;;;;;5026827;28;20029;-60
2022/07/15 09:57:02;;;;;;;2.33;0.60;;;21.00;92.90;;;;;;5022808;28;20155;-60
2022/07/15 09:59:29;;;;;;;1.55;0.85;;;21.00;94.70;;;;;;5028802;28;20116;-59
2022/07/15 10:01:55;;;;;;;2.75;0.68;;;21.30;94.70;;;;;;5023089;28;20139;-59
2022/07/15 10:04:23;;;;;;;10.23;2.42;;;21.30;93.60;;;;;;5029532;28;20122;-59
2022/07/15 10:06:52;;;;;;;2.78;0.50;;;21.20;94.10;;;;;;5024403;28;20027;-59
2022/07/15 10:09:26;;;;;;;1.20;0.52;;;21.10;92.60;;;;;;5033371;28;20032;-59
2022/07/15 10:11:54;;;;;;;2.08;0.40;;;21.30;90.10;;;;;;5023588;28;20029;-58
2022/07/15 10:14:25;;;;;;;3.40;0.70;;;21.30;90.70;;;;;;5023033;28;20430;-59
2022/07/15 10:17:09;;;;;;;3.15;1.08;;;21.40;88.90;;;;;;5026476;28;20044;-59
2022/07/15 10:19:40;;;;;;;2.35;0.50;;;21.50;88.60;;;;;;5022471;28;20400;-59
2022/07/15 10:22:42;;;;;;;3.67;1.10;;;21.80;88.70;;;;;;5025840;28;20077;-59
2022/07/15 10:25:22;;;;;;;1.08;0.40;;;22.00;90.20;;;;;;5027580;28;20049;-59
2022/07/15 10:27:59;;;;;;;1.20;0.47;;;21.80;82.00;;;;;;5025465;28;20060;-59
2022/07/15 10:30:25;;;;;;;0.77;0.30;;;21.90;81.80;;;;;;5025748;28;20056;-59
2022/07/15 10:33:03;;;;;;;2.20;0.38;;;22.00;77.90;;;;;;5025427;28;20044;-59
2022/07/15 10:35:36;;;;;;;3.38;0.70;;;21.70;73.90;;;;;;5029802;28;20037;-59
2022/07/15 10:38:23;;;;;;;3.05;0.60;;;21.90;74.00;;;;;;5026092;28;20052;-59
2022/07/15 10:40:57;;;;;;;3.85;0.70;;;22.10;73.10;;;;;;5023237;28;20033;-60
2022/07/15 10:43:42;;;;;;;58.75;2.70;;;22.30;74.00;;;;;;5024095;28;20041;-58
2022/07/15 10:46:16;;;;;;;1.65;0.60;;;22.40;78.10;;;;;;5029383;28;20025;-58
2022/07/15 10:49:05;;;;;;;1.73;0.50;;;22.50;74.00;;;;;;5023154;28;20381;-59
2022/07/15 10:51:37;;;;;;;0.50;0.40;;;22.50;71.90;;;;;;4983689;28;20560;-59
2022/07/15 10:54:04;;;;;;;0.60;0.30;;;22.50;68.50;;;;;;4982209;28;20458;-58
2022/07/15 10:56:34;;;;;;;3.70;0.80;;;22.50;68.20;;;;;;4986125;28;20034;-58
2022/07/15 10:59:14;;;;;;;2.42;0.63;;;22.70;65.50;;;;;;4984905;28;20029;-60
2022/07/15 11:01:44;;;;;;;0.68;0.32;;;22.90;63.80;;;;;;4985807;28;20544;-60
2022/07/15 11:04:17;;;;;;;1.17;0.60;;;22.80;61.50;;;;;;4986945;28;20049;-60
2022/07/15 11:07:06;;;;;;;2.30;0.90;;;23.00;60.60;;;;;;4988260;28;20037;-60
2022/07/15 11:09:59;;;;;;;7.43;0.70;;;23.70;60.00;;;;;;4987719;28;20046;-59
2022/07/15 11:12:28;;;;;;;2.05;0.80;;;24.20;56.90;;;;;;4983081;28;20449;-59
2022/07/15 11:14:59;;;;;;;1.67;0.60;;;24.40;55.60;;;;;;4989368;28;21568;-59
2022/07/15 11:17:46;;;;;;;1.73;0.55;;;24.60;55.40;;;;;;4992989;28;20034;-59
2022/07/15 11:20:15;;;;;;;3.15;0.60;;;24.50;54.90;;;;;;4984746;28;20023;-59
2022/07/15 11:22:43;;;;;;;1.48;0.40;;;24.90;54.00;;;;;;4988974;28;20077;-60
2022/07/15 11:25:33;;;;;;;0.70;0.50;;;25.20;51.70;;;;;;4990340;28;20143;-58
2022/07/15 11:28:06;;;;;;;0.93;0.47;;;25.70;50.70;;;;;;4998005;28;20468;-59
2022/07/15 11:30:42;;;;;;;3.60;0.80;;;25.70;50.80;;;;;;5025822;28;20036;-58
2022/07/15 11:33:11;;;;;;;2.58;0.50;;;26.00;49.10;;;;;;5021012;28;20029;-58
2022/07/15 11:35:52;;;;;;;0.68;0.47;;;26.00;48.30;;;;;;5030049;28;20481;-58
2022/07/15 11:38:23;;;;;;;1.98;0.45;;;26.50;47.10;;;;;;5025123;28;20029;-60
2022/07/15 11:46:32;;;;;;;1.48;0.90;;;26.90;52.80;;;;;;5030955;28;20056;-60
2022/07/15 11:48:58;;;;;;;4.10;1.02;;;27.10;55.50;;;;;;5023982;28;20079;-60
2022/07/15 11:51:26;;;;;;;2.78;0.90;;;26.90;55.70;;;;;;5029537;28;20057;-60
2022/07/15 11:53:53;;;;;;;6.18;1.40;;;26.80;55.50;;;;;;5027830;28;20020;-60
2022/07/15 11:56:19;;;;;;;6.30;0.95;;;26.30;57.70;;;;;;5029015;28;20472;-60
2022/07/15 11:58:50;;;;;;;3.58;0.85;;;26.20;55.60;;;;;;5031582;28;20062;-58
2022/07/15 12:01:19;;;;;;;6.07;1.10;;;26.20;56.70;;;;;;5032495;28;20031;-59
2022/07/15 12:03:47;;;;;;;1.88;0.82;;;26.50;56.00;;;;;;5027261;28;20043;-60
2022/07/15 12:06:30;;;;;;;3.10;0.65;;;26.50;56.40;;;;;;5031255;28;20112;-60
2022/07/15 12:09:07;;;;;;;6.68;1.10;;;26.90;55.30;;;;;;5028959;28;20179;-60
2022/07/15 12:11:35;;;;;;;2.38;0.90;;;26.50;55.00;;;;;;5027831;28;20455;-60
2022/07/15 12:14:07;;;;;;;1.63;0.88;;;26.80;54.30;;;;;;5026748;28;20124;-59
2022/07/15 12:16:38;;;;;;;6.05;1.38;;;26.50;53.30;;;;;;5031011;28;20108;-60
2022/07/15 12:19:07;;;;;;;2.50;1.40;;;26.60;54.00;;;;;;5031613;28;20116;-58
2022/07/15 12:21:35;;;;;;;2.15;0.63;;;26.50;53.40;;;;;;5029579;28;20477;-58
2022/07/15 12:24:07;;;;;;;2.42;0.77;;;26.60;52.30;;;;;;5030939;28;20034;-58
2022/07/15 12:26:38;;;;;;;4.60;0.85;;;26.70;52.00;;;;;;5029316;28;20112;-59
2022/07/15 12:29:06;;;;;;;3.30;0.80;;;26.30;51.70;;;;;;5030632;28;20095;-58
2022/07/15 12:31:34;;;;;;;3.35;0.70;;;26.40;51.90;;;;;;5036096;28;20052;-59
2022/07/15 12:34:00;;;;;;;1.77;0.52;;;27.00;51.10;;;;;;5028829;28;20428;-57
2022/07/15 12:36:29;;;;;;;3.03;1.63;;;27.20;51.00;;;;;;5030741;28;20037;-59
2022/07/15 12:39:30;;;;;;;1.30;0.60;;;27.10;49.60;;;;;;5037766;28;20029;-59
2022/07/15 12:42:02;;;;;;;1.52;0.75;;;27.40;49.10;;;;;;5022345;28;20044;-59
2022/07/15 12:44:28;;;;;;;1.17;0.65;;;27.30;49.10;;;;;;5019034;28;20161;-59
2022/07/15 12:47:06;;;;;;;2.38;0.60;;;27.40;48.50;;;;;;5016092;28;20521;-60
2022/07/15 12:49:51;;;;;;;3.88;0.50;;;27.40;48.10;;;;;;5017966;28;20121;-59
2022/07/15 12:52:53;;;;;;;4.53;0.60;;;27.10;48.90;;;;;;5018640;28;20060;-60
2022/07/15 12:55:27;;;;;;;2.35;0.90;;;27.60;49.00;;;;;;4961851;28;20031;-60
2022/07/15 12:58:08;;;;;;;2.25;0.80;;;27.90;47.90;;;;;;4956882;28;20337;-59
2022/07/15 13:00:35;;;;;;;2.27;0.67;;;27.50;47.90;;;;;;4959340;28;20062;-59
2022/07/15 13:03:05;;;;;;;4.25;0.80;;;27.50;47.50;;;;;;4961493;28;20496;-59
2022/07/15 13:05:39;;;;;;;3.72;1.08;;;27.70;47.50;;;;;;4963486;28;20499;-59
2022/07/15 13:08:11;;;;;;;1.88;0.70;;;27.80;47.30;;;;;;4963571;28;20447;-59